Okmulgee, OK

8:57 PM CDT on August 01, 2014 (GMT -0500)
Okmulgee Regional (KOKM) Elev 722 ft | 35.67 °N, 95.95 °W | Change Station

Current weather conditions updated 22 minutes ago

Clear
Clear
74 °F
Feels Like 74 °F
N
0
Wind Variable Wind from North

Tomorrow is forecast to be Warmer than today.

Today
High -- | Low -- °F
--% Chance of Precip.
Yesterday
High -- | Low -- °F
Precip. -- in
6:32 AM 8:27 PM
Waxing Crescent, 31% visible
Pressure 30.04 in
Visibility 10.0 miles
Clouds Clear
Dew Point 67 °F
Humidity 77%
Rainfall 0.00 in
Snow Depth Not available.
UV 0 out of 12
Pollen 5.10 out of 12
Air Quality Not available.
Flu Activity Not available.
METAR KOKM 020135Z AUTO 00000KT 10SM CLR 23/19 A3004 RMK AO2 T02340192

More Conditions Fewer Conditions

Pressure 30.04 in
Visibility 10.0 miles
Clouds Clear
Dew Point 67 °F
Humidity 77%
Rainfall 0.00 in
Snow Depth Not available.
UV 0 out of 12
Pollen 5.10 out of 12
Air Quality Not available.
Flu Activity Not available.
METAR KOKM 020135Z AUTO 00000KT 10SM CLR 23/19 A3004 RMK AO2 T02340192

More Conditions Fewer Conditions

10-Day Weather Forecast

Almanac

Astronomy

Aug. 01, 2014 Rise Set
Actual Time 6:32 AM CDT 8:27 PM CDT
Civil Twilight 6:03 AM CDT 8:55 PM CDT
Nautical Twilight 5:29 AM CDT 9:29 PM CDT
Astronomical Twilight 4:53 AM CDT 10:06 PM CDT
Moon 11:44 AM CDT (8/1) 11:26 PM CDT (8/1)
Length of Visible Light 14h 51m
Length of Day
13h 55m
Tomorrow will be 1m 41s shorter.
Waxing Crescent, 31% of the Moon is Illuminated
Today
Waxing Crescent
Aug 3
First Quarter
Aug 10
Full
Aug 17
Last Quarter
Aug 25
New

Today's Extremes

State Highs State Lows

Community

WunderPhotos

Upload Photos

1,739,784 photos uploaded!

Nearby

Snow Depth

Station Depth Elevation
No new snow has been reported.

Earthquake Activity

City Distance Mag. Time & Date
Yale, Oklahoma 60 miles 3.2 5:19 PM CDT
2014-07-27
Medford, Oklahoma 133 miles 2.9 3:39 PM CDT
2014-07-27
Perry, Oklahoma 96 miles 2.8 4:28 AM CDT
2014-07-27
Caldwell, Kansas 145 miles 3.4 5:57 AM CDT
2014-07-26
Minimum magnitude displayed is 2.5.

Coastal Water Temperatures

Place Temperature
No Stations Reporting

Nearby Weather Stations

Station Location Temp. Heat Index Dew Point Humidity Wind Precip. Elev Updated Type
Double S Ranch, Beggs, OK 74.3 °F 75 °F 67 °F 77% ESE  at  1.0 mph 0.00 in / hr 778 ft 8:57 PM CDT Rapid Fire
Village At Sparta, Bixby, OK 73.3 °F 73 °F 68 °F 84% ESE  at  0.0 mph 0.00 in / hr 643 ft 8:50 PM CDT Normal
Phil and Carolyn's House, Bixby, OK 74.3 °F 75 °F 68 °F 81% SSW  at  0.0 mph 0.00 in / hr 707 ft 8:57 PM CDT Rapid Fire
NEXRAD BRAD, Glenpool, OK 77.4 °F 79 °F 66 °F 67% SE  at  0.7 mph 0.00 in / hr 738 ft 8:57 PM CDT Rapid Fire

Show More Stations Show Fewer Stations